sensor_id;sensor_type;location;lat;lon;timestamp;P1;durP1;ratioP1;P2;durP2;ratioP2
22268;SDS011;11303;50.772;19.670;2024-01-11T00:01:21;481.08;;;160.63;;
22268;SDS011;11303;50.772;19.670;2024-01-11T00:03:22;386.23;;;141.82;;
22268;SDS011;11303;50.772;19.670;2024-01-11T00:05:24;332.45;;;127.35;;
22268;SDS011;11303;50.772;19.670;2024-01-11T00:07:26;318.40;;;122.90;;
22268;SDS011;11303;50.772;19.670;2024-01-11T00:09:27;349.92;;;134.75;;
22268;SDS011;11303;50.772;19.670;2024-01-11T00:11:29;380.85;;;138.13;;
22268;SDS011;11303;50.772;19.670;2024-01-11T00:13:31;357.25;;;133.30;;
22268;SDS011;11303;50.772;19.670;2024-01-11T00:15:32;343.73;;;126.05;;
22268;SDS011;11303;50.772;19.670;2024-01-11T00:17:34;345.27;;;131.85;;
22268;SDS011;11303;50.772;19.670;2024-01-11T00:19:36;353.27;;;128.27;;
22268;SDS011;11303;50.772;19.670;2024-01-11T00:21:37;377.10;;;134.93;;
22268;SDS011;11303;50.772;19.670;2024-01-11T00:23:42;362.48;;;134.63;;
22268;SDS011;11303;50.772;19.670;2024-01-11T00:25:43;371.40;;;133.15;;
22268;SDS011;11303;50.772;19.670;2024-01-11T00:27:45;345.52;;;130.10;;
22268;SDS011;11303;50.772;19.670;2024-01-11T00:29:47;470.75;;;148.38;;
22268;SDS011;11303;50.772;19.670;2024-01-11T00:31:48;429.90;;;145.35;;
22268;SDS011;11303;50.772;19.670;2024-01-11T00:33:50;328.02;;;121.45;;
22268;SDS011;11303;50.772;19.670;2024-01-11T00:35:51;339.85;;;127.40;;
22268;SDS011;11303;50.772;19.670;2024-01-11T00:37:53;310.38;;;111.53;;
22268;SDS011;11303;50.772;19.670;2024-01-11T00:39:54;324.30;;;122.13;;
22268;SDS011;11303;50.772;19.670;2024-01-11T00:41:56;279.63;;;106.57;;
22268;SDS011;11303;50.772;19.670;2024-01-11T00:43:57;316.02;;;116.53;;
22268;SDS011;11303;50.772;19.670;2024-01-11T00:45:59;453.70;;;171.55;;
22268;SDS011;11303;50.772;19.670;2024-01-11T00:48:01;396.13;;;144.10;;
22268;SDS011;11303;50.772;19.670;2024-01-11T00:50:04;413.55;;;149.38;;
22268;SDS011;11303;50.772;19.670;2024-01-11T00:52:06;339.50;;;134.77;;
22268;SDS011;11303;50.772;19.670;2024-01-11T00:54:08;387.33;;;159.95;;
22268;SDS011;11303;50.772;19.670;2024-01-11T00:56:18;425.75;;;167.93;;
22268;SDS011;11303;50.772;19.670;2024-01-11T00:58:20;385.17;;;145.45;;
22268;SDS011;11303;50.772;19.670;2024-01-11T01:00:22;369.75;;;141.18;;
22268;SDS011;11303;50.772;19.670;2024-01-11T01:02:24;368.10;;;141.13;;
22268;SDS011;11303;50.772;19.670;2024-01-11T01:04:25;369.20;;;138.73;;
22268;SDS011;11303;50.772;19.670;2024-01-11T01:06:27;334.10;;;127.70;;
22268;SDS011;11303;50.772;19.670;2024-01-11T01:08:28;323.40;;;126.68;;
22268;SDS011;11303;50.772;19.670;2024-01-11T01:10:30;343.08;;;130.90;;
22268;SDS011;11303;50.772;19.670;2024-01-11T01:12:32;480.48;;;184.02;;
22268;SDS011;11303;50.772;19.670;2024-01-11T01:14:33;514.75;;;186.23;;
22268;SDS011;11303;50.772;19.670;2024-01-11T01:16:35;372.88;;;137.93;;
22268;SDS011;11303;50.772;19.670;2024-01-11T01:18:36;391.27;;;160.57;;
22268;SDS011;11303;50.772;19.670;2024-01-11T01:20:38;357.17;;;139.43;;
22268;SDS011;11303;50.772;19.670;2024-01-11T01:22:40;545.17;;;200.20;;
22268;SDS011;11303;50.772;19.670;2024-01-11T01:24:41;424.92;;;156.32;;
22268;SDS011;11303;50.772;19.670;2024-01-11T01:26:43;381.80;;;140.98;;
22268;SDS011;11303;50.772;19.670;2024-01-11T01:28:45;330.50;;;126.53;;
22268;SDS011;11303;50.772;19.670;2024-01-11T01:30:46;308.40;;;122.70;;
22268;SDS011;11303;50.772;19.670;2024-01-11T01:32:48;324.25;;;124.70;;
22268;SDS011;11303;50.772;19.670;2024-01-11T01:34:50;349.58;;;130.23;;
22268;SDS011;11303;50.772;19.670;2024-01-11T01:36:52;351.40;;;138.45;;
22268;SDS011;11303;50.772;19.670;2024-01-11T01:38:53;329.60;;;133.65;;
22268;SDS011;11303;50.772;19.670;2024-01-11T01:40:55;352.45;;;145.32;;
22268;SDS011;11303;50.772;19.670;2024-01-11T01:42:59;383.65;;;148.52;;
22268;SDS011;11303;50.772;19.670;2024-01-11T01:45:01;356.00;;;139.93;;
22268;SDS011;11303;50.772;19.670;2024-01-11T01:47:02;357.92;;;136.30;;
22268;SDS011;11303;50.772;19.670;2024-01-11T01:49:06;345.25;;;135.77;;
22268;SDS011;11303;50.772;19.670;2024-01-11T01:51:08;360.88;;;138.10;;
22268;SDS011;11303;50.772;19.670;2024-01-11T01:53:09;359.10;;;136.65;;
22268;SDS011;11303;50.772;19.670;2024-01-11T01:55:11;373.58;;;137.35;;
22268;SDS011;11303;50.772;19.670;2024-01-11T01:57:15;366.48;;;136.88;;
22268;SDS011;11303;50.772;19.670;2024-01-11T01:59:18;336.25;;;125.78;;
22268;SDS011;11303;50.772;19.670;2024-01-11T02:01:21;305.50;;;119.38;;
22268;SDS011;11303;50.772;19.670;2024-01-11T02:03:25;282.65;;;108.00;;
22268;SDS011;11303;50.772;19.670;2024-01-11T02:05:29;264.48;;;107.78;;
22268;SDS011;11303;50.772;19.670;2024-01-11T02:07:31;284.05;;;107.15;;
22268;SDS011;11303;50.772;19.670;2024-01-11T02:09:33;273.17;;;107.88;;
22268;SDS011;11303;50.772;19.670;2024-01-11T02:11:35;269.95;;;100.78;;
22268;SDS011;11303;50.772;19.670;2024-01-11T02:13:37;263.83;;;96.57;;
22268;SDS011;11303;50.772;19.670;2024-01-11T02:15:39;258.63;;;101.50;;
22268;SDS011;11303;50.772;19.670;2024-01-11T02:17:41;259.48;;;99.13;;
22268;SDS011;11303;50.772;19.670;2024-01-11T02:19:43;279.23;;;107.78;;
22268;SDS011;11303;50.772;19.670;2024-01-11T02:21:44;262.07;;;96.83;;
22268;SDS011;11303;50.772;19.670;2024-01-11T02:24:03;242.98;;;87.55;;
22268;SDS011;11303;50.772;19.670;2024-01-11T02:26:06;256.20;;;96.35;;
22268;SDS011;11303;50.772;19.670;2024-01-11T02:28:07;229.10;;;88.70;;
22268;SDS011;11303;50.772;19.670;2024-01-11T02:30:10;222.25;;;82.45;;
22268;SDS011;11303;50.772;19.670;2024-01-11T02:32:12;220.60;;;80.07;;
22268;SDS011;11303;50.772;19.670;2024-01-11T02:34:14;226.93;;;87.53;;
22268;SDS011;11303;50.772;19.670;2024-01-11T02:36:15;227.20;;;87.40;;
22268;SDS011;11303;50.772;19.670;2024-01-11T02:38:18;223.88;;;87.35;;
22268;SDS011;11303;50.772;19.670;2024-01-11T02:40:20;229.75;;;89.32;;
22268;SDS011;11303;50.772;19.670;2024-01-11T02:42:21;241.80;;;95.13;;
22268;SDS011;11303;50.772;19.670;2024-01-11T02:44:23;269.55;;;111.43;;
22268;SDS011;11303;50.772;19.670;2024-01-11T02:46:25;387.42;;;126.00;;
22268;SDS011;11303;50.772;19.670;2024-01-11T02:48:27;366.48;;;122.95;;
22268;SDS011;11303;50.772;19.670;2024-01-11T02:50:30;272.77;;;100.55;;
22268;SDS011;11303;50.772;19.670;2024-01-11T02:52:32;255.93;;;100.40;;
22268;SDS011;11303;50.772;19.670;2024-01-11T02:54:34;209.40;;;81.95;;
22268;SDS011;11303;50.772;19.670;2024-01-11T02:56:35;207.95;;;75.75;;
22268;SDS011;11303;50.772;19.670;2024-01-11T02:58:37;192.50;;;74.25;;
22268;SDS011;11303;50.772;19.670;2024-01-11T03:00:39;181.23;;;63.28;;
22268;SDS011;11303;50.772;19.670;2024-01-11T03:02:40;205.68;;;78.22;;
22268;SDS011;11303;50.772;19.670;2024-01-11T03:04:42;180.70;;;63.17;;
22268;SDS011;11303;50.772;19.670;2024-01-11T03:06:44;213.20;;;70.63;;
22268;SDS011;11303;50.772;19.670;2024-01-11T03:08:46;243.05;;;87.72;;
22268;SDS011;11303;50.772;19.670;2024-01-11T03:10:47;273.65;;;84.45;;
22268;SDS011;11303;50.772;19.670;2024-01-11T03:12:49;256.58;;;83.13;;
22268;SDS011;11303;50.772;19.670;2024-01-11T03:14:50;264.23;;;101.57;;
22268;SDS011;11303;50.772;19.670;2024-01-11T03:16:52;342.30;;;112.22;;
22268;SDS011;11303;50.772;19.670;2024-01-11T03:18:54;295.42;;;103.25;;
22268;SDS011;11303;50.772;19.670;2024-01-11T03:20:55;208.60;;;80.50;;
22268;SDS011;11303;50.772;19.670;2024-01-11T03:22:57;223.25;;;86.25;;
22268;SDS011;11303;50.772;19.670;2024-01-11T03:24:59;258.45;;;96.03;;
22268;SDS011;11303;50.772;19.670;2024-01-11T03:27:00;243.77;;;92.10;;
22268;SDS011;11303;50.772;19.670;2024-01-11T03:29:02;271.35;;;103.38;;
22268;SDS011;11303;50.772;19.670;2024-01-11T03:31:03;265.20;;;104.00;;
22268;SDS011;11303;50.772;19.670;2024-01-11T03:33:05;293.10;;;108.30;;
22268;SDS011;11303;50.772;19.670;2024-01-11T03:35:07;265.88;;;101.57;;
22268;SDS011;11303;50.772;19.670;2024-01-11T03:37:10;333.10;;;117.32;;
22268;SDS011;11303;50.772;19.670;2024-01-11T03:39:11;406.52;;;130.88;;
22268;SDS011;11303;50.772;19.670;2024-01-11T03:41:13;370.10;;;119.63;;
22268;SDS011;11303;50.772;19.670;2024-01-11T03:43:16;354.48;;;115.63;;
22268;SDS011;11303;50.772;19.670;2024-01-11T03:45:18;331.83;;;107.18;;
22268;SDS011;11303;50.772;19.670;2024-01-11T03:47:23;341.13;;;111.15;;
22268;SDS011;11303;50.772;19.670;2024-01-11T03:49:24;306.70;;;104.57;;
22268;SDS011;11303;50.772;19.670;2024-01-11T03:51:26;298.00;;;109.55;;
22268;SDS011;11303;50.772;19.670;2024-01-11T03:53:28;298.73;;;107.10;;
22268;SDS011;11303;50.772;19.670;2024-01-11T03:55:29;308.38;;;108.47;;
22268;SDS011;11303;50.772;19.670;2024-01-11T03:57:31;299.80;;;104.70;;
22268;SDS011;11303;50.772;19.670;2024-01-11T03:59:33;350.52;;;117.75;;
22268;SDS011;11303;50.772;19.670;2024-01-11T04:01:38;332.40;;;121.82;;
22268;SDS011;11303;50.772;19.670;2024-01-11T04:03:41;329.13;;;119.85;;
22268;SDS011;11303;50.772;19.670;2024-01-11T04:05:43;310.38;;;114.13;;
22268;SDS011;11303;50.772;19.670;2024-01-11T04:07:45;300.48;;;111.78;;
22268;SDS011;11303;50.772;19.670;2024-01-11T04:09:46;261.95;;;101.15;;
22268;SDS011;11303;50.772;19.670;2024-01-11T04:11:48;222.80;;;86.22;;
22268;SDS011;11303;50.772;19.670;2024-01-11T04:13:49;200.73;;;77.38;;
22268;SDS011;11303;50.772;19.670;2024-01-11T04:15:51;166.80;;;67.55;;
22268;SDS011;11303;50.772;19.670;2024-01-11T04:17:52;183.02;;;77.15;;
22268;SDS011;11303;50.772;19.670;2024-01-11T04:19:54;183.88;;;74.35;;
22268;SDS011;11303;50.772;19.670;2024-01-11T04:21:56;163.35;;;68.65;;
22268;SDS011;11303;50.772;19.670;2024-01-11T04:23:57;167.45;;;69.97;;
22268;SDS011;11303;50.772;19.670;2024-01-11T04:25:59;163.77;;;66.55;;
22268;SDS011;11303;50.772;19.670;2024-01-11T04:28:01;159.48;;;66.63;;
22268;SDS011;11303;50.772;19.670;2024-01-11T04:30:02;154.95;;;63.70;;
22268;SDS011;11303;50.772;19.670;2024-01-11T04:32:05;141.25;;;61.70;;
22268;SDS011;11303;50.772;19.670;2024-01-11T04:34:07;155.10;;;62.70;;
22268;SDS011;11303;50.772;19.670;2024-01-11T04:36:09;157.00;;;64.75;;
22268;SDS011;11303;50.772;19.670;2024-01-11T04:38:11;143.55;;;60.47;;
22268;SDS011;11303;50.772;19.670;2024-01-11T04:40:13;143.13;;;61.00;;
22268;SDS011;11303;50.772;19.670;2024-01-11T04:42:14;140.95;;;60.53;;
22268;SDS011;11303;50.772;19.670;2024-01-11T04:44:16;146.95;;;59.42;;
22268;SDS011;11303;50.772;19.670;2024-01-11T04:46:18;144.93;;;62.22;;
22268;SDS011;11303;50.772;19.670;2024-01-11T04:48:21;156.77;;;68.13;;
22268;SDS011;11303;50.772;19.670;2024-01-11T04:50:23;148.43;;;60.70;;
22268;SDS011;11303;50.772;19.670;2024-01-11T04:52:25;161.50;;;67.20;;
22268;SDS011;11303;50.772;19.670;2024-01-11T04:54:26;154.18;;;68.45;;
22268;SDS011;11303;50.772;19.670;2024-01-11T04:56:28;147.18;;;63.08;;
22268;SDS011;11303;50.772;19.670;2024-01-11T04:58:31;166.23;;;71.38;;
22268;SDS011;11303;50.772;19.670;2024-01-11T05:00:32;339.52;;;110.28;;
22268;SDS011;11303;50.772;19.670;2024-01-11T05:02:34;394.58;;;109.65;;
22268;SDS011;11303;50.772;19.670;2024-01-11T05:04:35;431.88;;;110.40;;
22268;SDS011;11303;50.772;19.670;2024-01-11T05:06:37;267.17;;;81.53;;
22268;SDS011;11303;50.772;19.670;2024-01-11T05:08:39;253.60;;;93.15;;
22268;SDS011;11303;50.772;19.670;2024-01-11T05:10:40;437.15;;;136.05;;
22268;SDS011;11303;50.772;19.670;2024-01-11T05:12:42;777.88;;;231.07;;
22268;SDS011;11303;50.772;19.670;2024-01-11T05:14:43;699.13;;;204.93;;
22268;SDS011;11303;50.772;19.670;2024-01-11T05:16:45;849.45;;;302.23;;
22268;SDS011;11303;50.772;19.670;2024-01-11T05:18:47;866.53;;;347.48;;
22268;SDS011;11303;50.772;19.670;2024-01-11T05:20:48;1073.07;;;378.65;;
22268;SDS011;11303;50.772;19.670;2024-01-11T05:22:50;963.15;;;354.92;;
22268;SDS011;11303;50.772;19.670;2024-01-11T05:24:51;849.67;;;317.80;;
22268;SDS011;11303;50.772;19.670;2024-01-11T05:26:53;857.60;;;327.02;;
22268;SDS011;11303;50.772;19.670;2024-01-11T05:28:54;1007.30;;;314.33;;
22268;SDS011;11303;50.772;19.670;2024-01-11T05:30:56;1056.55;;;301.63;;
22268;SDS011;11303;50.772;19.670;2024-01-11T05:32:58;1014.05;;;323.35;;
22268;SDS011;11303;50.772;19.670;2024-01-11T05:34:59;851.80;;;277.02;;
22268;SDS011;11303;50.772;19.670;2024-01-11T05:37:01;551.35;;;247.45;;
22268;SDS011;11303;50.772;19.670;2024-01-11T05:39:03;356.58;;;153.95;;
22268;SDS011;11303;50.772;19.670;2024-01-11T05:41:04;388.05;;;139.68;;
22268;SDS011;11303;50.772;19.670;2024-01-11T05:43:06;284.85;;;109.00;;
22268;SDS011;11303;50.772;19.670;2024-01-11T05:45:07;223.75;;;81.60;;
22268;SDS011;11303;50.772;19.670;2024-01-11T05:47:09;226.88;;;88.18;;
22268;SDS011;11303;50.772;19.670;2024-01-11T05:49:11;215.85;;;87.20;;
22268;SDS011;11303;50.772;19.670;2024-01-11T05:51:13;183.48;;;75.97;;
22268;SDS011;11303;50.772;19.670;2024-01-11T05:53:14;177.45;;;74.18;;
22268;SDS011;11303;50.772;19.670;2024-01-11T05:55:16;157.80;;;60.72;;
22268;SDS011;11303;50.772;19.670;2024-01-11T05:57:18;179.38;;;74.65;;
22268;SDS011;11303;50.772;19.670;2024-01-11T05:59:19;186.77;;;75.30;;
22268;SDS011;11303;50.772;19.670;2024-01-11T06:01:21;178.85;;;72.40;;
22268;SDS011;11303;50.772;19.670;2024-01-11T06:03:23;204.35;;;71.90;;
22268;SDS011;11303;50.772;19.670;2024-01-11T06:05:25;187.18;;;71.00;;
22268;SDS011;11303;50.772;19.670;2024-01-11T06:07:27;216.50;;;77.15;;
22268;SDS011;11303;50.772;19.670;2024-01-11T06:09:29;238.88;;;79.88;;
22268;SDS011;11303;50.772;19.670;2024-01-11T06:11:30;195.07;;;69.40;;
22268;SDS011;11303;50.772;19.670;2024-01-11T06:13:32;221.45;;;71.20;;
22268;SDS011;11303;50.772;19.670;2024-01-11T06:15:34;256.73;;;80.38;;
22268;SDS011;11303;50.772;19.670;2024-01-11T06:17:36;234.15;;;76.22;;
22268;SDS011;11303;50.772;19.670;2024-01-11T06:19:38;258.85;;;82.50;;
22268;SDS011;11303;50.772;19.670;2024-01-11T06:21:39;240.55;;;85.53;;
22268;SDS011;11303;50.772;19.670;2024-01-11T06:23:45;156.95;;;64.00;;
22268;SDS011;11303;50.772;19.670;2024-01-11T06:25:46;149.65;;;61.28;;
22268;SDS011;11303;50.772;19.670;2024-01-11T06:27:48;141.00;;;56.45;;
22268;SDS011;11303;50.772;19.670;2024-01-11T06:29:49;164.88;;;58.70;;
22268;SDS011;11303;50.772;19.670;2024-01-11T06:31:51;160.70;;;61.83;;
22268;SDS011;11303;50.772;19.670;2024-01-11T06:33:52;141.07;;;57.35;;
22268;SDS011;11303;50.772;19.670;2024-01-11T06:35:54;171.60;;;62.78;;
22268;SDS011;11303;50.772;19.670;2024-01-11T06:37:57;175.13;;;66.55;;
22268;SDS011;11303;50.772;19.670;2024-01-11T06:39:59;157.50;;;58.95;;
22268;SDS011;11303;50.772;19.670;2024-01-11T06:42:00;175.70;;;65.20;;
22268;SDS011;11303;50.772;19.670;2024-01-11T06:44:02;222.43;;;76.63;;
22268;SDS011;11303;50.772;19.670;2024-01-11T06:46:04;201.45;;;70.80;;
22268;SDS011;11303;50.772;19.670;2024-01-11T06:48:06;187.50;;;64.65;;
22268;SDS011;11303;50.772;19.670;2024-01-11T06:50:08;159.90;;;57.25;;
22268;SDS011;11303;50.772;19.670;2024-01-11T06:52:10;173.32;;;59.58;;
22268;SDS011;11303;50.772;19.670;2024-01-11T06:54:11;147.80;;;54.88;;
22268;SDS011;11303;50.772;19.670;2024-01-11T06:56:16;144.80;;;54.10;;
22268;SDS011;11303;50.772;19.670;2024-01-11T06:58:22;154.90;;;56.47;;
22268;SDS011;11303;50.772;19.670;2024-01-11T07:00:24;158.50;;;56.13;;
22268;SDS011;11303;50.772;19.670;2024-01-11T07:02:26;151.65;;;56.20;;
22268;SDS011;11303;50.772;19.670;2024-01-11T07:04:27;188.82;;;55.72;;
22268;SDS011;11303;50.772;19.670;2024-01-11T07:06:32;164.35;;;50.60;;
22268;SDS011;11303;50.772;19.670;2024-01-11T07:08:34;136.35;;;49.50;;
22268;SDS011;11303;50.772;19.670;2024-01-11T07:10:36;138.68;;;47.28;;
22268;SDS011;11303;50.772;19.670;2024-01-11T07:12:38;141.13;;;48.20;;
22268;SDS011;11303;50.772;19.670;2024-01-11T07:14:42;159.10;;;47.75;;
22268;SDS011;11303;50.772;19.670;2024-01-11T07:16:44;128.88;;;40.75;;
22268;SDS011;11303;50.772;19.670;2024-01-11T07:18:46;121.20;;;43.10;;
22268;SDS011;11303;50.772;19.670;2024-01-11T07:20:48;184.65;;;60.97;;
22268;SDS011;11303;50.772;19.670;2024-01-11T07:22:49;148.70;;;47.38;;
22268;SDS011;11303;50.772;19.670;2024-01-11T07:24:51;77.38;;;27.30;;
22268;SDS011;11303;50.772;19.670;2024-01-11T07:26:53;142.77;;;48.75;;
22268;SDS011;11303;50.772;19.670;2024-01-11T07:28:55;132.73;;;41.65;;
22268;SDS011;11303;50.772;19.670;2024-01-11T07:30:57;124.63;;;41.05;;
22268;SDS011;11303;50.772;19.670;2024-01-11T07:32:58;148.25;;;50.17;;
22268;SDS011;11303;50.772;19.670;2024-01-11T07:35:00;120.38;;;35.38;;
22268;SDS011;11303;50.772;19.670;2024-01-11T07:37:02;129.38;;;42.30;;
22268;SDS011;11303;50.772;19.670;2024-01-11T07:39:06;144.18;;;48.88;;
22268;SDS011;11303;50.772;19.670;2024-01-11T07:41:07;157.20;;;49.97;;
22268;SDS011;11303;50.772;19.670;2024-01-11T07:43:09;199.00;;;59.00;;
22268;SDS011;11303;50.772;19.670;2024-01-11T07:45:11;224.25;;;68.60;;
22268;SDS011;11303;50.772;19.670;2024-01-11T07:47:12;193.55;;;57.55;;
22268;SDS011;11303;50.772;19.670;2024-01-11T07:49:14;170.30;;;50.13;;
22268;SDS011;11303;50.772;19.670;2024-01-11T07:51:16;118.90;;;40.33;;
22268;SDS011;11303;50.772;19.670;2024-01-11T07:53:21;176.60;;;55.33;;
22268;SDS011;11303;50.772;19.670;2024-01-11T07:55:23;124.20;;;42.63;;
22268;SDS011;11303;50.772;19.670;2024-01-11T07:57:25;130.93;;;41.22;;
22268;SDS011;11303;50.772;19.670;2024-01-11T07:59:26;91.70;;;33.90;;
22268;SDS011;11303;50.772;19.670;2024-01-11T08:01:28;84.63;;;32.13;;
22268;SDS011;11303;50.772;19.670;2024-01-11T08:03:30;117.82;;;36.88;;
22268;SDS011;11303;50.772;19.670;2024-01-11T08:05:31;104.95;;;37.05;;
22268;SDS011;11303;50.772;19.670;2024-01-11T08:07:33;111.40;;;38.50;;
22268;SDS011;11303;50.772;19.670;2024-01-11T08:09:35;119.03;;;40.90;;
22268;SDS011;11303;50.772;19.670;2024-01-11T08:11:37;119.00;;;38.92;;
22268;SDS011;11303;50.772;19.670;2024-01-11T08:13:44;96.43;;;31.38;;
22268;SDS011;11303;50.772;19.670;2024-01-11T08:15:45;137.82;;;47.28;;
22268;SDS011;11303;50.772;19.670;2024-01-11T08:17:47;151.73;;;51.75;;
22268;SDS011;11303;50.772;19.670;2024-01-11T08:19:49;135.20;;;44.92;;
22268;SDS011;11303;50.772;19.670;2024-01-11T08:21:51;108.35;;;41.08;;
22268;SDS011;11303;50.772;19.670;2024-01-11T08:23:52;104.88;;;38.15;;
22268;SDS011;11303;50.772;19.670;2024-01-11T08:25:54;101.13;;;39.03;;
22268;SDS011;11303;50.772;19.670;2024-01-11T08:27:55;111.38;;;38.03;;
22268;SDS011;11303;50.772;19.670;2024-01-11T08:29:57;62.25;;;24.15;;
22268;SDS011;11303;50.772;19.670;2024-01-11T08:31:59;98.72;;;35.55;;
22268;SDS011;11303;50.772;19.670;2024-01-11T08:34:06;97.15;;;35.30;;
22268;SDS011;11303;50.772;19.670;2024-01-11T08:36:08;95.13;;;34.63;;
22268;SDS011;11303;50.772;19.670;2024-01-11T08:38:09;107.75;;;37.05;;
22268;SDS011;11303;50.772;19.670;2024-01-11T08:40:12;110.20;;;37.13;;
22268;SDS011;11303;50.772;19.670;2024-01-11T08:42:13;91.13;;;33.78;;
22268;SDS011;11303;50.772;19.670;2024-01-11T08:44:16;140.85;;;50.45;;
22268;SDS011;11303;50.772;19.670;2024-01-11T08:46:25;128.32;;;44.78;;
22268;SDS011;11303;50.772;19.670;2024-01-11T08:48:27;110.28;;;43.55;;
22268;SDS011;11303;50.772;19.670;2024-01-11T08:50:30;117.82;;;42.38;;
22268;SDS011;11303;50.772;19.670;2024-01-11T08:52:32;115.15;;;43.50;;
22268;SDS011;11303;50.772;19.670;2024-01-11T08:54:34;108.40;;;38.65;;
22268;SDS011;11303;50.772;19.670;2024-01-11T08:56:36;121.93;;;48.17;;
22268;SDS011;11303;50.772;19.670;2024-01-11T08:58:39;131.05;;;46.38;;
22268;SDS011;11303;50.772;19.670;2024-01-11T09:00:41;128.00;;;44.35;;
22268;SDS011;11303;50.772;19.670;2024-01-11T09:02:43;466.27;;;209.35;;
22268;SDS011;11303;50.772;19.670;2024-01-11T09:04:45;152.95;;;54.20;;
22268;SDS011;11303;50.772;19.670;2024-01-11T09:06:48;133.20;;;46.65;;
22268;SDS011;11303;50.772;19.670;2024-01-11T09:08:50;115.15;;;44.28;;
22268;SDS011;11303;50.772;19.670;2024-01-11T09:10:52;109.15;;;44.75;;
22268;SDS011;11303;50.772;19.670;2024-01-11T09:12:54;106.93;;;43.78;;
22268;SDS011;11303;50.772;19.670;2024-01-11T09:14:56;114.05;;;49.03;;
22268;SDS011;11303;50.772;19.670;2024-01-11T09:16:57;135.55;;;61.55;;
22268;SDS011;11303;50.772;19.670;2024-01-11T09:18:59;152.60;;;74.75;;
22268;SDS011;11303;50.772;19.670;2024-01-11T09:21:04;438.75;;;253.40;;
22268;SDS011;11303;50.772;19.670;2024-01-11T09:23:05;156.85;;;72.78;;
22268;SDS011;11303;50.772;19.670;2024-01-11T09:25:07;151.27;;;62.33;;
22268;SDS011;11303;50.772;19.670;2024-01-11T09:27:09;294.92;;;142.52;;
22268;SDS011;11303;50.772;19.670;2024-01-11T09:29:11;294.02;;;139.40;;
22268;SDS011;11303;50.772;19.670;2024-01-11T09:31:13;278.30;;;138.68;;
22268;SDS011;11303;50.772;19.670;2024-01-11T09:33:14;262.00;;;135.98;;
22268;SDS011;11303;50.772;19.670;2024-01-11T09:35:16;161.50;;;73.38;;
22268;SDS011;11303;50.772;19.670;2024-01-11T09:37:18;135.45;;;59.08;;
22268;SDS011;11303;50.772;19.670;2024-01-11T09:39:20;139.50;;;63.42;;
22268;SDS011;11303;50.772;19.670;2024-01-11T09:41:21;155.30;;;78.32;;
22268;SDS011;11303;50.772;19.670;2024-01-11T09:43:24;196.68;;;89.70;;
22268;SDS011;11303;50.772;19.670;2024-01-11T09:45:27;199.57;;;86.63;;
22268;SDS011;11303;50.772;19.670;2024-01-11T09:47:29;111.32;;;44.92;;
22268;SDS011;11303;50.772;19.670;2024-01-11T09:49:32;135.05;;;50.90;;
22268;SDS011;11303;50.772;19.670;2024-01-11T09:51:35;110.97;;;40.00;;
22268;SDS011;11303;50.772;19.670;2024-01-11T09:53:39;115.75;;;45.55;;
22268;SDS011;11303;50.772;19.670;2024-01-11T09:55:42;99.53;;;38.03;;
22268;SDS011;11303;50.772;19.670;2024-01-11T09:57:45;114.35;;;42.17;;
22268;SDS011;11303;50.772;19.670;2024-01-11T09:59:48;99.63;;;34.50;;
22268;SDS011;11303;50.772;19.670;2024-01-11T10:01:52;113.97;;;41.45;;
22268;SDS011;11303;50.772;19.670;2024-01-11T10:03:54;134.50;;;50.33;;
22268;SDS011;11303;50.772;19.670;2024-01-11T10:05:57;128.52;;;52.50;;
22268;SDS011;11303;50.772;19.670;2024-01-11T10:07:59;91.70;;;36.28;;
22268;SDS011;11303;50.772;19.670;2024-01-11T10:10:01;110.68;;;43.00;;
22268;SDS011;11303;50.772;19.670;2024-01-11T10:12:04;116.03;;;45.17;;
22268;SDS011;11303;50.772;19.670;2024-01-11T10:14:06;86.95;;;33.60;;
22268;SDS011;11303;50.772;19.670;2024-01-11T10:16:09;101.03;;;39.60;;
22268;SDS011;11303;50.772;19.670;2024-01-11T10:18:14;218.23;;;79.03;;
22268;SDS011;11303;50.772;19.670;2024-01-11T10:20:16;124.78;;;47.33;;
22268;SDS011;11303;50.772;19.670;2024-01-11T10:22:19;136.98;;;54.55;;
22268;SDS011;11303;50.772;19.670;2024-01-11T10:24:25;194.45;;;83.25;;
22268;SDS011;11303;50.772;19.670;2024-01-11T10:26:29;126.38;;;51.80;;
22268;SDS011;11303;50.772;19.670;2024-01-11T10:28:31;126.75;;;50.50;;
22268;SDS011;11303;50.772;19.670;2024-01-11T10:30:46;103.25;;;39.60;;
22268;SDS011;11303;50.772;19.670;2024-01-11T10:32:48;100.20;;;40.83;;
22268;SDS011;11303;50.772;19.670;2024-01-11T10:34:50;98.10;;;37.30;;
22268;SDS011;11303;50.772;19.670;2024-01-11T10:36:51;106.90;;;40.08;;
22268;SDS011;11303;50.772;19.670;2024-01-11T10:38:53;119.07;;;42.65;;
22268;SDS011;11303;50.772;19.670;2024-01-11T10:40:58;276.23;;;77.75;;
22268;SDS011;11303;50.772;19.670;2024-01-11T10:43:01;432.73;;;148.10;;
22268;SDS011;11303;50.772;19.670;2024-01-11T10:45:06;350.15;;;113.72;;
22268;SDS011;11303;50.772;19.670;2024-01-11T10:47:15;402.52;;;134.40;;
22268;SDS011;11303;50.772;19.670;2024-01-11T10:49:19;717.20;;;266.60;;
22268;SDS011;11303;50.772;19.670;2024-01-11T10:51:21;999.33;;;369.17;;
22268;SDS011;11303;50.772;19.670;2024-01-11T10:55:34;320.77;;;113.13;;
22268;SDS011;11303;50.772;19.670;2024-01-11T10:57:36;595.75;;;211.43;;
22268;SDS011;11303;50.772;19.670;2024-01-11T10:59:38;133.27;;;51.40;;
22268;SDS011;11303;50.772;19.670;2024-01-11T11:01:45;163.05;;;63.85;;
22268;SDS011;11303;50.772;19.670;2024-01-11T11:03:49;169.63;;;66.82;;
22268;SDS011;11303;50.772;19.670;2024-01-11T11:05:55;141.95;;;52.40;;
22268;SDS011;11303;50.772;19.670;2024-01-11T11:07:59;165.60;;;67.53;;
22268;SDS011;11303;50.772;19.670;2024-01-11T11:10:03;139.05;;;59.08;;
22268;SDS011;11303;50.772;19.670;2024-01-11T11:12:07;131.98;;;46.97;;
22268;SDS011;11303;50.772;19.670;2024-01-11T11:14:10;127.25;;;46.20;;
22268;SDS011;11303;50.772;19.670;2024-01-11T11:16:15;125.65;;;45.40;;
22268;SDS011;11303;50.772;19.670;2024-01-11T11:18:17;96.55;;;37.28;;
22268;SDS011;11303;50.772;19.670;2024-01-11T11:20:20;101.35;;;35.08;;
22268;SDS011;11303;50.772;19.670;2024-01-11T11:22:23;106.07;;;36.80;;
22268;SDS011;11303;50.772;19.670;2024-01-11T11:24:28;110.95;;;39.40;;
22268;SDS011;11303;50.772;19.670;2024-01-11T11:26:31;105.72;;;40.00;;
22268;SDS011;11303;50.772;19.670;2024-01-11T11:28:33;118.65;;;42.80;;
22268;SDS011;11303;50.772;19.670;2024-01-11T11:30:38;124.85;;;48.58;;
22268;SDS011;11303;50.772;19.670;2024-01-11T11:32:43;102.85;;;42.60;;